Time;durP1;ratioP1;P1;durP2;ratioP2;P2;SDS_P1;SDS_P2;PMS_P1;PMS_P2;Temp;Humidity;BMP_temperature;BMP_pressure;BME280_temperature;BME280_humidity;BME280_pressure;Samples;Min_cycle;Max_cycle;Signal;HPM_P1;HPM_P2
2023/07/04 00:00:12;;;;;;;5.63;3.20;;;16.80;99.90;;;;;;5140129;27;20416;-51
2023/07/04 00:02:39;;;;;;;5.83;3.80;;;16.70;30.00;;;;;;5140221;27;20535;-50
2023/07/04 00:05:05;;;;;;;4.90;3.30;;;16.80;99.90;;;;;;5121801;27;20443;-49
2023/07/04 00:07:34;;;;;;;4.50;3.67;;;16.70;99.90;;;;;;5139156;27;20443;-52
2023/07/04 00:10:00;;;;;;;7.93;3.60;;;16.60;99.90;;;;;;5139152;27;20464;-51
2023/07/04 00:12:26;;;;;;;4.50;3.40;;;16.60;1.00;;;;;;5137443;27;20424;-50
2023/07/04 00:14:52;;;;;;;4.20;3.10;;;16.50;1.00;;;;;;5136619;27;20255;-50
2023/07/04 00:17:18;;;;;;;7.23;3.80;;;16.50;1.00;;;;;;5137215;27;20683;-50
2023/07/04 00:19:47;;;;;;;5.40;3.93;;;16.50;1.00;;;;;;5137156;27;20187;-53
2023/07/04 00:22:13;;;;;;;4.50;3.67;;;16.40;1.00;;;;;;5138164;27;20428;-50
2023/07/04 00:24:40;;;;;;;7.80;4.03;;;16.40;1.00;;;;;;5136943;27;20467;-52
2023/07/04 00:27:06;;;;;;;5.43;3.50;;;16.50;1.00;;;;;;5119476;27;20417;-49
2023/07/04 00:29:32;;;;;;;5.73;3.40;;;16.40;1.00;;;;;;5118617;27;20436;-49
2023/07/04 00:31:58;;;;;;;4.90;4.10;;;16.60;1.00;;;;;;5137112;27;20480;-49
2023/07/04 00:34:24;;;;;;;5.60;3.63;;;16.70;1.00;;;;;;5137661;27;20190;-53
2023/07/04 00:36:50;;;;;;;11.50;5.13;;;16.70;1.00;;;;;;5120983;27;20497;-50
2023/07/04 00:39:16;;;;;;;4.90;3.67;;;16.70;1.00;;;;;;5138821;27;20412;-51
2023/07/04 00:41:42;;;;;;;8.73;4.03;;;16.60;1.00;;;;;;5137813;27;20898;-55
2023/07/04 00:44:22;;;;;;;5.33;3.80;;;16.70;1.00;;;;;;5138970;27;20193;-50
2023/07/04 00:47:06;;;;;;;5.77;4.03;;;16.70;1.00;;;;;;5139739;27;20553;-50
2023/07/04 00:49:42;;;;;;;6.40;3.60;;;16.60;1.00;;;;;;5139475;27;20422;-52
2023/07/04 00:52:26;;;;;;;7.00;4.10;;;16.60;1.00;;;;;;5137886;27;20408;-50
2023/07/04 00:55:00;;;;;;;7.20;4.17;;;16.60;1.00;;;;;;5119179;27;20439;-50
2023/07/04 00:57:31;;;;;;;3.83;3.47;;;16.70;1.00;;;;;;5137578;27;20409;-50
2023/07/04 00:59:58;;;;;;;6.00;4.00;;;16.70;1.00;;;;;;5137151;27;20464;-49
2023/07/04 01:02:27;;;;;;;7.33;4.37;;;16.70;1.00;;;;;;5135991;27;20429;-50
2023/07/04 01:04:53;;;;;;;6.93;4.10;;;16.60;1.00;;;;;;5135855;27;20497;-57
2023/07/04 01:07:33;;;;;;;5.37;3.80;;;16.60;39.30;;;;;;5137197;27;20841;-50
2023/07/04 01:10:06;;;;;;;3.90;3.50;;;16.60;20.10;;;;;;5136914;27;20528;-52
2023/07/04 01:12:31;;;;;;;7.53;3.93;;;16.60;95.80;;;;;;5119502;27;20412;-53
2023/07/04 01:14:59;;;;;;;5.93;3.97;;;16.50;99.90;;;;;;5135640;27;20890;-51
2023/07/04 01:17:25;;;;;;;4.70;4.07;;;16.50;99.60;;;;;;5138293;27;20416;-56
2023/07/04 01:19:51;;;;;;;5.60;4.33;;;16.60;67.60;;;;;;5138609;27;20496;-50
2023/07/04 01:22:35;;;;;;;4.63;3.70;;;16.60;92.70;;;;;;5138138;27;20266;-52
2023/07/04 01:25:09;;;;;;;5.00;4.50;;;16.50;99.90;;;;;;5138449;27;20471;-50
2023/07/04 01:27:36;;;;;;;5.43;3.90;;;16.50;99.90;;;;;;5120243;27;20451;-49
2023/07/04 01:30:04;;;;;;;4.50;3.97;;;16.50;99.90;;;;;;5138491;27;20950;-49
2023/07/04 01:32:31;;;;;;;6.47;4.67;;;16.40;99.90;;;;;;5138284;27;20636;-52
2023/07/04 01:35:00;;;;;;;4.03;3.57;;;16.40;99.90;;;;;;5138329;27;20428;-48
2023/07/04 01:37:29;;;;;;;4.43;4.03;;;16.50;99.90;;;;;;5138172;27;20436;-49
2023/07/04 01:39:57;;;;;;;5.13;3.67;;;16.50;99.90;;;;;;5120346;27;20451;-51
2023/07/04 01:42:23;;;;;;;4.10;3.53;;;16.50;99.90;;;;;;5138565;27;20412;-51
2023/07/04 01:44:48;;;;;;;4.87;3.50;;;16.50;99.90;;;;;;5137658;27;20436;-53
2023/07/04 01:47:14;;;;;;;5.97;3.73;;;16.60;99.90;;;;;;5120063;27;20834;-50
2023/07/04 01:49:40;;;;;;;5.23;3.53;;;16.50;99.90;;;;;;5138332;27;20585;-51
2023/07/04 01:52:06;;;;;;;6.00;4.40;;;16.50;99.90;;;;;;5137330;27;20539;-49
2023/07/04 01:54:32;;;;;;;4.83;3.53;;;16.40;99.90;;;;;;5137673;27;20187;-53
2023/07/04 01:56:58;;;;;;;4.80;3.63;;;16.40;99.90;;;;;;5137696;27;20420;-54
2023/07/04 01:59:23;;;;;;;5.90;4.03;;;16.50;99.90;;;;;;5137586;27;20319;-50
2023/07/04 02:01:50;;;;;;;4.20;3.77;;;16.60;99.90;;;;;;5138116;27;20190;-50
2023/07/04 02:04:15;;;;;;;4.57;3.37;;;16.70;83.20;;;;;;5137693;27;20224;-50
2023/07/04 02:06:42;;;;;;;3.67;3.00;;;16.70;20.20;;;;;;5138115;27;20413;-53
2023/07/04 02:09:08;;;;;;;3.90;3.37;;;16.70;1.00;;;;;;5137830;27;20423;-52
2023/07/04 02:11:33;;;;;;;4.13;3.30;;;16.70;1.00;;;;;;5138027;27;20468;-51
2023/07/04 02:14:00;;;;;;;3.93;3.53;;;16.70;1.00;;;;;;5137950;27;20218;-49
2023/07/04 02:16:26;;;;;;;3.97;3.30;;;16.80;1.00;;;;;;5137667;27;20231;-51
2023/07/04 02:18:52;;;;;;;4.10;3.30;;;16.80;1.00;;;;;;5137302;27;20756;-50
2023/07/04 02:21:18;;;;;;;3.53;3.13;;;16.80;1.00;;;;;;5135382;27;20417;-51
2023/07/04 02:23:44;;;;;;;3.40;3.10;;;16.80;1.00;;;;;;5136002;27;20187;-50
2023/07/04 02:26:12;;;;;;;4.57;2.90;;;16.90;1.00;;;;;;5135459;27;20834;-53
2023/07/04 02:28:39;;;;;;;3.33;2.87;;;16.90;1.00;;;;;;5134649;27;20460;-50
2023/07/04 02:31:05;;;;;;;3.10;2.80;;;16.90;1.00;;;;;;5135988;27;20934;-54
2023/07/04 02:33:31;;;;;;;3.30;2.60;;;16.90;1.00;;;;;;5135429;27;20432;-51
2023/07/04 02:35:56;;;;;;;3.87;3.00;;;16.80;1.00;;;;;;5136893;27;20476;-50
2023/07/04 02:38:22;;;;;;;4.57;3.40;;;16.80;1.00;;;;;;5137352;27;20258;-52
2023/07/04 02:40:49;;;;;;;3.70;2.83;;;16.80;1.00;;;;;;5136543;27;20163;-54
2023/07/04 02:43:15;;;;;;;3.20;2.90;;;16.80;1.00;;;;;;5137062;27;20472;-51
2023/07/04 02:45:41;;;;;;;2.73;2.40;;;16.70;1.00;;;;;;5136291;28;20667;-52
2023/07/04 02:48:09;;;;;;;3.63;2.83;;;16.70;1.00;;;;;;5137029;28;20424;-50
2023/07/04 02:50:34;;;;;;;5.27;3.00;;;16.60;1.00;;;;;;5136413;28;20608;-50
2023/07/04 02:53:01;;;;;;;6.80;3.60;;;16.50;1.00;;;;;;5136725;28;20874;-48
2023/07/04 02:55:27;;;;;;;4.20;2.97;;;16.40;1.00;;;;;;5136286;28;20174;-49
2023/07/04 02:57:52;;;;;;;3.83;2.80;;;16.30;9.90;;;;;;5135656;28;20438;-49
2023/07/04 03:00:18;;;;;;;5.10;3.17;;;16.20;87.50;;;;;;5134640;28;20417;-50
2023/07/04 03:02:44;;;;;;;3.13;2.80;;;16.10;99.90;;;;;;5135328;28;20171;-50
2023/07/04 03:05:10;;;;;;;4.37;3.00;;;16.20;99.90;;;;;;5134665;28;20179;-52
2023/07/04 03:07:35;;;;;;;4.60;3.27;;;16.20;99.90;;;;;;5134947;28;20468;-50
2023/07/04 03:10:01;;;;;;;4.60;3.13;;;16.20;99.90;;;;;;5133896;28;20211;-50
2023/07/04 03:12:27;;;;;;;5.00;3.10;;;16.20;99.90;;;;;;5135507;28;20173;-50
2023/07/04 03:14:52;;;;;;;3.90;3.13;;;16.20;99.90;;;;;;5135972;28;20178;-50
2023/07/04 03:17:18;;;;;;;4.93;3.30;;;16.20;99.90;;;;;;5135394;28;20183;-51
2023/07/04 03:19:44;;;;;;;4.67;3.40;;;16.10;99.90;;;;;;5134553;28;20243;-51
2023/07/04 03:22:09;;;;;;;3.47;3.17;;;16.10;99.90;;;;;;5135168;28;20198;-54
2023/07/04 03:24:35;;;;;;;4.50;3.10;;;16.10;99.90;;;;;;5135384;28;20231;-54
2023/07/04 03:27:01;;;;;;;5.07;3.10;;;16.20;99.90;;;;;;5134167;28;20216;-50
2023/07/04 03:29:26;;;;;;;2.80;2.40;;;16.30;99.90;;;;;;5135209;28;20183;-50
2023/07/04 03:31:52;;;;;;;4.27;3.00;;;16.20;99.90;;;;;;5135693;27;20213;-49
2023/07/04 03:34:18;;;;;;;4.27;2.80;;;16.20;99.90;;;;;;5139313;27;20171;-52
2023/07/04 03:36:43;;;;;;;3.67;3.20;;;16.20;99.90;;;;;;5140813;27;20232;-49
2023/07/04 03:39:09;;;;;;;3.77;3.00;;;16.20;99.90;;;;;;5140035;27;20186;-49
2023/07/04 03:41:35;;;;;;;4.60;3.23;;;16.30;99.90;;;;;;5139973;27;20514;-49
2023/07/04 03:44:00;;;;;;;4.67;2.40;;;16.40;99.90;;;;;;5139052;27;20180;-50
2023/07/04 03:46:27;;;;;;;3.60;2.97;;;16.50;80.00;;;;;;5138655;27;20175;-48
2023/07/04 03:48:53;;;;;;;4.90;2.53;;;16.50;50.20;;;;;;5138998;27;20435;-53
2023/07/04 03:51:18;;;;;;;3.97;2.80;;;16.60;1.00;;;;;;5139141;27;20598;-49
2023/07/04 03:53:44;;;;;;;3.30;2.13;;;16.60;1.00;;;;;;5138715;27;20259;-50
2023/07/04 03:56:10;;;;;;;3.17;2.63;;;16.60;1.00;;;;;;5139005;27;20185;-51
2023/07/04 03:58:36;;;;;;;3.83;2.77;;;16.60;1.00;;;;;;5139532;27;20465;-50
2023/07/04 04:01:04;;;;;;;5.27;2.33;;;16.60;1.00;;;;;;5140255;27;20897;-54
2023/07/04 04:03:36;;;;;;;2.67;2.30;;;16.60;1.00;;;;;;5140550;27;20183;-60
2023/07/04 04:06:02;;;;;;;3.93;2.83;;;16.60;6.80;;;;;;5139359;27;20729;-57
2023/07/04 04:08:28;;;;;;;5.20;2.57;;;16.70;1.00;;;;;;5139163;27;20447;-57
2023/07/04 04:10:54;;;;;;;3.27;2.60;;;16.70;1.00;;;;;;5137706;27;20857;-55
2023/07/04 04:13:19;;;;;;;3.47;2.47;;;16.80;1.00;;;;;;5137472;27;20175;-54
2023/07/04 04:15:45;;;;;;;5.30;2.40;;;16.60;1.00;;;;;;5137861;27;20167;-56
2023/07/04 04:18:11;;;;;;;2.40;2.20;;;16.70;1.00;;;;;;5136511;27;20170;-55
2023/07/04 04:20:37;;;;;;;3.50;2.87;;;16.80;1.00;;;;;;5138928;27;20189;-56
2023/07/04 04:23:02;;;;;;;2.83;2.27;;;16.70;1.00;;;;;;5139027;27;20183;-55
2023/07/04 04:25:28;;;;;;;2.53;2.30;;;16.70;13.40;;;;;;5138820;27;20223;-57
2023/07/04 04:27:55;;;;;;;3.80;2.40;;;16.80;1.00;;;;;;5138496;27;20206;-53
2023/07/04 04:30:21;;;;;;;4.10;2.73;;;16.80;1.00;;;;;;5119348;27;20453;-58
2023/07/04 04:32:46;;;;;;;3.53;2.53;;;17.00;1.00;;;;;;5117043;28;20184;-55
2023/07/04 04:35:12;;;;;;;2.77;2.57;;;17.00;1.00;;;;;;5115440;28;20248;-53
2023/07/04 04:37:38;;;;;;;3.40;2.63;;;17.10;1.00;;;;;;5115078;28;20366;-52
2023/07/04 04:40:06;;;;;;;4.30;2.70;;;17.20;1.00;;;;;;5114324;27;20595;-56
2023/07/04 04:42:34;;;;;;;4.53;3.40;;;17.20;1.00;;;;;;5112746;28;20210;-56
2023/07/04 04:45:00;;;;;;;3.10;2.50;;;17.10;1.00;;;;;;5111623;28;20445;-52
2023/07/04 04:47:32;;;;;;;4.30;3.00;;;17.10;1.00;;;;;;5092260;28;20445;-55
2023/07/04 04:50:00;;;;;;;3.40;3.10;;;17.20;1.00;;;;;;5112314;28;20476;-57
2023/07/04 04:52:29;;;;;;;4.00;2.93;;;17.10;1.00;;;;;;5111343;28;20453;-55
2023/07/04 04:54:55;;;;;;;3.60;2.80;;;17.10;1.00;;;;;;5111449;28;20429;-55
2023/07/04 04:57:21;;;;;;;4.90;3.00;;;17.00;1.00;;;;;;5110682;28;20478;-54
2023/07/04 04:59:49;;;;;;;4.27;2.87;;;17.00;1.00;;;;;;5111857;28;20430;-56
2023/07/04 05:02:15;;;;;;;3.07;2.73;;;17.10;1.00;;;;;;5112678;28;20456;-55
2023/07/04 05:04:41;;;;;;;4.20;2.87;;;17.10;1.00;;;;;;5109775;28;20440;-55
2023/07/04 05:07:07;;;;;;;4.47;3.60;;;17.20;1.00;;;;;;5110698;28;20433;-57
2023/07/04 05:09:34;;;;;;;3.17;2.87;;;17.30;1.00;;;;;;5110774;28;20409;-56
2023/07/04 05:12:00;;;;;;;4.37;3.40;;;17.30;1.00;;;;;;5112199;28;20725;-56
2023/07/04 05:14:26;;;;;;;4.00;3.00;;;17.30;1.00;;;;;;5111809;28;20457;-53
2023/07/04 05:16:52;;;;;;;3.53;3.03;;;17.40;1.00;;;;;;5112841;28;20769;-55
2023/07/04 05:19:17;;;;;;;3.40;2.90;;;17.50;99.90;;;;;;5112474;28;20453;-52
2023/07/04 05:21:43;;;;;;;4.83;3.27;;;17.50;99.90;;;;;;5111508;28;20431;-55
2023/07/04 05:24:09;;;;;;;5.20;3.57;;;17.60;99.90;;;;;;5107626;28;20220;-54
2023/07/04 05:26:36;;;;;;;5.63;3.07;;;17.50;99.90;;;;;;5103034;28;20200;-56
2023/07/04 05:29:04;;;;;;;3.03;2.73;;;17.50;99.90;;;;;;5111681;28;20182;-53
2023/07/04 05:31:32;;;;;;;4.60;3.27;;;17.50;99.90;;;;;;5111987;28;20519;-53
2023/07/04 05:33:58;;;;;;;4.40;3.10;;;17.60;99.90;;;;;;5113682;28;20440;-56
2023/07/04 05:36:30;;;;;;;3.33;3.03;;;17.50;99.90;;;;;;5093561;28;20780;-55
2023/07/04 05:39:01;;;;;;;7.13;3.10;;;17.60;99.90;;;;;;5098635;28;20207;-56
2023/07/04 05:41:28;;;;;;;3.47;2.90;;;17.70;99.90;;;;;;5095553;28;20843;-58
2023/07/04 05:43:55;;;;;;;4.43;3.00;;;17.70;95.80;;;;;;5093016;28;20477;-56
2023/07/04 05:46:21;;;;;;;3.20;2.90;;;17.70;99.90;;;;;;5092958;28;20452;-53
2023/07/04 05:48:47;;;;;;;3.17;2.73;;;17.80;55.60;;;;;;5092771;28;20758;-55
2023/07/04 05:51:14;;;;;;;6.43;3.73;;;17.80;1.00;;;;;;5091626;28;20561;-55
2023/07/04 05:53:41;;;;;;;4.23;3.20;;;17.70;1.00;;;;;;5089338;28;20172;-51
2023/07/04 05:56:17;;;;;;;4.20;3.20;;;17.70;2.10;;;;;;5090024;28;20563;-53
2023/07/04 05:58:48;;;;;;;5.70;3.70;;;17.70;40.50;;;;;;5088850;28;20449;-54
2023/07/04 06:01:22;;;;;;;5.60;3.13;;;17.80;1.00;;;;;;5090092;28;20721;-52
2023/07/04 06:03:48;;;;;;;4.80;3.37;;;17.90;1.00;;;;;;5071396;28;20453;-55
2023/07/04 06:06:36;;;;;;;5.73;3.23;;;18.00;1.00;;;;;;5089857;28;20453;-55
2023/07/04 06:09:13;;;;;;;5.43;3.63;;;18.00;1.00;;;;;;5091786;28;20418;-53
2023/07/04 06:11:45;;;;;;;3.80;3.10;;;18.10;1.00;;;;;;5071921;28;20721;-59
2023/07/04 06:14:12;;;;;;;3.83;3.13;;;18.20;99.90;;;;;;5089609;28;20430;-55
2023/07/04 06:16:38;;;;;;;3.83;3.23;;;18.20;99.90;;;;;;5089722;28;20437;-54
2023/07/04 06:19:04;;;;;;;4.50;2.93;;;18.30;99.90;;;;;;5089829;28;20712;-57
2023/07/04 06:21:29;;;;;;;6.47;2.80;;;18.60;1.00;;;;;;5091523;28;20172;-53
2023/07/04 06:23:56;;;;;;;5.27;3.17;;;18.70;1.00;;;;;;5092479;28;20391;-56
2023/07/04 06:26:22;;;;;;;4.83;2.77;;;18.80;64.30;;;;;;5109815;28;20587;-55
2023/07/04 06:28:49;;;;;;;4.00;2.70;;;19.00;99.90;;;;;;5109147;28;20440;-57
2023/07/04 06:31:16;;;;;;;4.40;3.40;;;19.10;99.90;;;;;;5110406;28;20207;-56
2023/07/04 06:33:41;;;;;;;3.20;2.90;;;19.20;1.00;;;;;;5111294;28;20420;-57
2023/07/04 06:36:08;;;;;;;4.63;3.00;;;19.20;99.90;;;;;;5111883;28;20413;-53
2023/07/04 06:38:34;;;;;;;4.50;3.40;;;19.10;95.50;;;;;;5109606;28;20419;-56
2023/07/04 06:41:01;;;;;;;4.00;3.07;;;18.90;1.00;;;;;;5111401;28;20437;-55
2023/07/04 06:43:29;;;;;;;3.70;3.10;;;18.80;1.00;;;;;;5094121;28;20172;-55
2023/07/04 06:45:55;;;;;;;5.40;2.90;;;18.90;1.00;;;;;;5113576;28;20502;-52
2023/07/04 06:48:22;;;;;;;4.77;3.23;;;18.90;1.00;;;;;;5113574;28;20448;-56
2023/07/04 06:51:13;;;;;;;6.03;3.53;;;18.90;99.90;;;;;;5111577;28;20468;-53
2023/07/04 06:53:40;;;;;;;5.50;3.20;;;18.90;99.90;;;;;;5112796;28;20512;-56
2023/07/04 06:56:15;;;;;;;4.93;3.20;;;19.00;1.00;;;;;;5095868;28;20676;-55
2023/07/04 06:58:46;;;;;;;4.67;3.03;;;19.20;99.90;;;;;;5114558;28;20705;-54
2023/07/04 07:01:12;;;;;;;4.27;2.70;;;19.30;99.90;;;;;;5114139;28;20440;-57
2023/07/04 07:03:38;;;;;;;5.57;3.40;;;19.40;10.40;;;;;;5113204;28;20588;-56
2023/07/04 07:06:06;;;;;;;6.13;3.57;;;19.50;1.00;;;;;;5078702;28;20653;-54
2023/07/04 07:08:32;;;;;;;6.40;3.23;;;19.50;1.00;;;;;;5115429;28;20665;-56
2023/07/04 07:11:00;;;;;;;4.70;3.17;;;19.60;99.90;;;;;;5115688;28;20973;-57
2023/07/04 07:13:26;;;;;;;7.77;3.30;;;19.60;99.90;;;;;;5118722;28;20449;-52
2023/07/04 07:15:53;;;;;;;6.27;3.20;;;19.50;99.90;;;;;;5118988;28;20443;-57
2023/07/04 07:18:19;;;;;;;4.53;3.10;;;19.50;1.00;;;;;;5100255;28;20804;-56
2023/07/04 07:20:45;;;;;;;4.50;3.70;;;19.60;1.00;;;;;;5100563;28;20808;-56
2023/07/04 07:23:11;;;;;;;7.10;3.40;;;19.70;99.90;;;;;;5116896;28;20465;-54
2023/07/04 07:25:37;;;;;;;5.93;3.30;;;19.70;99.90;;;;;;5114527;28;20300;-56
2023/07/04 07:28:03;;;;;;;3.50;3.20;;;19.70;99.90;;;;;;5114459;28;20421;-57
2023/07/04 07:30:29;;;;;;;4.70;3.10;;;19.60;99.90;;;;;;5116857;28;20922;-55
2023/07/04 07:32:54;;;;;;;8.80;4.20;;;19.70;55.10;;;;;;5116431;28;20461;-56
2023/07/04 07:35:20;;;;;;;6.20;4.03;;;19.70;1.00;;;;;;5114394;28;20420;-55
2023/07/04 07:37:45;;;;;;;5.30;3.43;;;19.80;1.00;;;;;;5096425;28;20461;-57
2023/07/04 07:40:12;;;;;;;4.40;3.13;;;19.90;1.00;;;;;;5116724;28;20277;-56
2023/07/04 07:42:37;;;;;;;6.93;3.90;;;19.90;1.00;;;;;;5113818;28;20266;-56
2023/07/04 07:45:08;;;;;;;9.67;3.77;;;19.90;1.00;;;;;;5099751;28;20588;-56
2023/07/04 07:47:33;;;;;;;8.77;3.90;;;19.80;1.00;;;;;;5116280;28;20291;-56
2023/07/04 07:49:59;;;;;;;3.77;2.70;;;19.90;1.00;;;;;;5115541;28;20596;-61
2023/07/04 07:52:25;;;;;;;4.50;3.20;;;20.00;1.00;;;;;;5114691;28;20184;-56
2023/07/04 07:54:50;;;;;;;8.57;3.37;;;20.10;1.00;;;;;;5080961;28;20182;-54
2023/07/04 07:57:16;;;;;;;5.33;3.30;;;20.40;99.90;;;;;;5116843;28;20436;-56
2023/07/04 07:59:41;;;;;;;8.13;4.10;;;20.70;99.90;;;;;;5115738;28;20172;-54
2023/07/04 08:02:13;;;;;;;7.97;3.30;;;20.80;99.90;;;;;;5116122;28;20542;-57
2023/07/04 08:04:38;;;;;;;10.50;3.73;;;20.80;99.90;;;;;;5114503;28;20183;-55
2023/07/04 08:07:07;;;;;;;5.73;3.07;;;21.00;99.90;;;;;;5113811;28;20444;-56
2023/07/04 08:09:33;;;;;;;8.63;3.90;;;21.10;99.90;;;;;;5113567;28;20164;-57
2023/07/04 08:11:59;;;;;;;6.40;3.90;;;21.10;99.90;;;;;;5113183;28;20757;-54
2023/07/04 08:14:25;;;;;;;6.97;3.93;;;21.60;42.70;;;;;;5113795;28;20206;-55
2023/07/04 08:16:52;;;;;;;6.20;3.90;;;21.90;1.00;;;;;;5094526;28;20299;-58
2023/07/04 08:19:19;;;;;;;6.60;4.00;;;22.10;9.10;;;;;;5111671;28;20494;-56
2023/07/04 08:21:45;;;;;;;6.53;4.10;;;22.30;1.00;;;;;;5114847;28;20413;-56
2023/07/04 08:24:13;;;;;;;5.33;3.40;;;21.60;32.00;;;;;;5113373;28;20765;-51
2023/07/04 08:26:40;;;;;;;5.53;3.90;;;21.60;90.20;;;;;;5113820;28;20421;-53
2023/07/04 08:29:06;;;;;;;11.63;4.63;;;21.20;88.80;;;;;;5097650;28;20512;-53
2023/07/04 08:31:33;;;;;;;6.50;4.20;;;21.10;99.90;;;;;;5116528;28;20509;-51
2023/07/04 08:33:58;;;;;;;7.50;3.70;;;21.10;99.90;;;;;;5115668;28;20426;-56
2023/07/04 08:36:24;;;;;;;7.50;3.73;;;21.10;99.90;;;;;;5115735;28;20417;-55
2023/07/04 08:38:50;;;;;;;9.33;4.37;;;21.40;82.70;;;;;;5116364;28;20281;-58
2023/07/04 08:41:38;;;;;;;6.23;3.73;;;21.10;22.20;;;;;;5112678;28;20349;-59
2023/07/04 08:44:12;;;;;;;6.47;4.20;;;21.10;42.90;;;;;;5112679;28;20831;-59
2023/07/04 08:46:44;;;;;;;6.00;4.63;;;21.20;7.80;;;;;;5096419;28;20421;-58
2023/07/04 08:49:34;;;;;;;5.13;3.90;;;21.10;13.40;;;;;;5097368;28;20428;-56
2023/07/04 08:52:12;;;;;;;5.07;4.00;;;21.30;11.40;;;;;;5114651;28;20504;-58
2023/07/04 08:54:37;;;;;;;5.40;4.23;;;21.80;1.00;;;;;;5115816;28;20406;-59
2023/07/04 08:57:28;;;;;;;10.23;4.47;;;22.20;1.00;;;;;;5097207;28;20437;-56
2023/07/04 08:59:59;;;;;;;6.50;4.73;;;22.40;1.00;;;;;;5116262;28;20176;-58
2023/07/04 09:02:52;;;;;;;6.47;4.23;;;22.60;1.00;;;;;;5116440;28;20437;-56
2023/07/04 09:05:35;;;;;;;7.83;4.73;;;22.60;1.00;;;;;;5110662;28;20703;-57
2023/07/04 09:08:26;;;;;;;6.80;4.90;;;22.70;1.00;;;;;;5114031;28;20723;-56
2023/07/04 09:10:56;;;;;;;5.93;4.37;;;22.80;1.00;;;;;;5096078;28;20720;-57
2023/07/04 09:13:36;;;;;;;7.70;4.90;;;23.00;1.00;;;;;;5095127;28;20440;-58
2023/07/04 09:16:06;;;;;;;6.57;4.90;;;23.10;1.00;;;;;;5099357;28;20436;-52
2023/07/04 09:19:03;;;;;;;6.53;5.20;;;23.20;1.00;;;;;;5099071;28;20433;-54
2023/07/04 09:21:30;;;;;;;9.40;5.80;;;23.40;1.00;;;;;;5112302;28;20417;-56
2023/07/04 09:24:01;;;;;;;7.43;4.80;;;23.10;1.00;;;;;;5113370;28;20827;-57
2023/07/04 09:26:52;;;;;;;5.30;4.80;;;23.20;1.00;;;;;;5111845;28;20425;-55
2023/07/04 09:29:20;;;;;;;7.23;5.33;;;23.60;1.00;;;;;;5089451;28;20433;-58
2023/07/04 09:31:46;;;;;;;10.00;5.70;;;23.70;1.00;;;;;;5109842;28;20484;-57
2023/07/04 09:34:16;;;;;;;8.97;6.70;;;23.60;1.00;;;;;;5093907;28;20440;-55
2023/07/04 09:36:42;;;;;;;7.60;5.40;;;23.80;1.00;;;;;;5093822;28;20409;-58
2023/07/04 09:39:09;;;;;;;6.07;3.90;;;24.10;1.00;;;;;;5112578;28;20428;-59
2023/07/04 09:41:39;;;;;;;7.93;6.57;;;24.30;1.00;;;;;;5112463;28;20172;-58
2023/07/04 09:44:19;;;;;;;7.60;4.80;;;24.40;1.00;;;;;;5112740;28;20437;-59
2023/07/04 09:46:52;;;;;;;7.80;5.53;;;24.20;1.00;;;;;;5111714;28;20455;-56
2023/07/04 09:49:25;;;;;;;6.10;4.90;;;23.90;1.00;;;;;;5093105;28;20438;-56
2023/07/04 09:52:00;;;;;;;8.23;6.13;;;23.90;1.00;;;;;;5111083;28;20465;-57
2023/07/04 09:54:26;;;;;;;6.20;5.50;;;24.10;1.00;;;;;;5112961;28;20504;-57
2023/07/04 09:56:51;;;;;;;9.77;5.93;;;24.30;1.00;;;;;;5095723;28;20544;-56
2023/07/04 09:59:19;;;;;;;9.20;6.40;;;24.50;1.00;;;;;;5113852;28;20258;-58
2023/07/04 10:01:48;;;;;;;7.73;5.70;;;24.70;1.00;;;;;;5092504;28;20244;-59
2023/07/04 10:04:30;;;;;;;6.13;5.30;;;25.10;1.00;;;;;;5110636;28;20439;-57
2023/07/04 10:06:57;;;;;;;8.73;6.37;;;25.60;1.00;;;;;;5094861;28;20429;-60
2023/07/04 10:09:23;;;;;;;6.27;5.67;;;25.60;1.00;;;;;;5111732;28;20744;-59
2023/07/04 10:11:50;;;;;;;7.47;6.30;;;25.70;1.00;;;;;;5110292;27;20484;-60
2023/07/04 10:14:17;;;;;;;6.20;5.60;;;26.10;1.00;;;;;;5097914;28;20186;-59
2023/07/04 10:16:50;;;;;;;6.57;5.50;;;26.20;1.00;;;;;;5112184;28;20858;-60
2023/07/04 10:19:19;;;;;;;6.50;5.60;;;26.10;1.00;;;;;;5110542;28;20422;-59
2023/07/04 10:21:48;;;;;;;5.70;5.20;;;25.90;1.00;;;;;;5114924;28;20424;-60
2023/07/04 10:24:22;;;;;;;5.93;5.40;;;25.90;1.00;;;;;;5114151;28;20521;-60
2023/07/04 10:26:51;;;;;;;6.10;5.07;;;25.70;1.00;;;;;;5114492;28;20429;-59
2023/07/04 10:29:23;;;;;;;6.20;5.60;;;26.20;1.00;;;;;;5113514;28;20719;-59
2023/07/04 10:31:49;;;;;;;6.07;5.50;;;26.60;1.00;;;;;;5094707;28;20492;-59
2023/07/04 10:34:18;;;;;;;5.77;5.00;;;26.40;1.00;;;;;;5094997;28;20433;-59
2023/07/04 10:36:44;;;;;;;5.80;4.90;;;26.80;1.00;;;;;;5112849;28;20236;-64
2023/07/04 10:39:13;;;;;;;5.70;4.83;;;27.20;1.00;;;;;;5095600;28;20409;-61
2023/07/04 10:41:46;;;;;;;7.43;5.53;;;27.20;1.00;;;;;;5094956;28;20719;-61
2023/07/04 10:44:16;;;;;;;9.07;5.70;;;27.10;1.00;;;;;;5094929;28;20425;-58
2023/07/04 10:46:47;;;;;;;6.00;5.03;;;27.30;1.00;;;;;;5094131;28;20498;-60
2023/07/04 10:49:17;;;;;;;6.00;4.73;;;27.40;1.00;;;;;;5095006;28;20426;-59
2023/07/04 10:51:44;;;;;;;5.70;5.10;;;26.80;1.00;;;;;;5090497;28;20758;-61
2023/07/04 10:54:11;;;;;;;11.80;5.73;;;26.30;1.00;;;;;;5111558;28;20409;-60
2023/07/04 10:56:40;;;;;;;6.13;5.20;;;25.70;1.00;;;;;;5113518;28;20860;-58
2023/07/04 10:59:29;;;;;;;8.33;5.90;;;25.40;1.00;;;;;;5113077;28;20432;-59
2023/07/04 11:02:15;;;;;;;5.60;5.10;;;25.20;1.00;;;;;;5097568;28;20425;-60
2023/07/04 11:04:41;;;;;;;5.83;4.50;;;25.40;1.00;;;;;;5114229;28;20445;-58
2023/07/04 11:07:19;;;;;;;5.23;4.73;;;25.00;1.00;;;;;;5114240;28;20433;-62
2023/07/04 11:09:45;;;;;;;6.93;5.70;;;25.20;1.00;;;;;;5113917;28;20257;-59
2023/07/04 11:12:17;;;;;;;6.80;4.73;;;25.40;1.00;;;;;;5111801;28;20452;-60
2023/07/04 11:14:44;;;;;;;5.33;4.83;;;25.50;1.00;;;;;;5094239;28;20494;-60
2023/07/04 11:17:21;;;;;;;6.40;5.13;;;25.30;1.00;;;;;;5110077;28;20508;-61
2023/07/04 11:20:11;;;;;;;6.10;5.30;;;24.90;1.00;;;;;;5111511;28;20409;-61
2023/07/04 11:22:54;;;;;;;8.50;5.57;;;24.80;1.00;;;;;;5111144;28;20449;-59
2023/07/04 11:25:42;;;;;;;5.90;5.30;;;24.70;1.00;;;;;;5111181;28;20465;-58
2023/07/04 11:28:32;;;;;;;7.67;5.37;;;24.60;1.00;;;;;;5111885;28;20417;-58
2023/07/04 11:31:16;;;;;;;6.03;5.40;;;24.90;1.00;;;;;;5131035;27;20556;-59
2023/07/04 11:33:54;;;;;;;7.57;4.80;;;25.30;1.00;;;;;;5132683;28;20791;-60
2023/07/04 11:36:37;;;;;;;5.60;4.60;;;25.50;1.00;;;;;;5132064;28;20396;-59
2023/07/04 11:39:18;;;;;;;5.80;5.00;;;25.50;1.00;;;;;;5112434;28;20504;-61
2023/07/04 11:41:44;;;;;;;5.10;4.57;;;26.00;1.00;;;;;;5128418;28;21012;-59
2023/07/04 11:44:36;;;;;;;5.27;4.77;;;26.90;1.00;;;;;;5109563;28;20403;-62
2023/07/04 11:47:05;;;;;;;5.87;5.20;;;27.30;1.00;;;;;;5106151;28;20484;-61
2023/07/04 11:49:33;;;;;;;7.70;4.87;;;27.50;1.00;;;;;;5128921;28;20429;-61
2023/07/04 11:52:06;;;;;;;4.20;3.80;;;27.40;1.00;;;;;;5131142;28;20475;-60
2023/07/04 11:54:32;;;;;;;4.80;4.30;;;27.30;1.00;;;;;;5133556;27;20401;-61
2023/07/04 11:56:57;;;;;;;5.87;4.20;;;27.30;1.00;;;;;;5117437;27;20481;-62
2023/07/04 11:59:24;;;;;;;4.27;3.80;;;27.40;1.00;;;;;;5135526;27;20428;-61
2023/07/04 12:01:56;;;;;;;4.80;4.00;;;27.40;1.00;;;;;;5135329;27;20180;-62
2023/07/04 12:04:38;;;;;;;5.40;4.37;;;27.40;1.00;;;;;;5137577;27;20486;-62
2023/07/04 12:07:37;;;;;;;4.50;3.90;;;27.70;1.00;;;;;;5135453;27;20508;-62
2023/07/04 12:10:21;;;;;;;4.80;3.63;;;26.90;1.00;;;;;;5135013;27;20420;-61
2023/07/04 12:12:59;;;;;;;6.93;3.63;;;26.70;1.00;;;;;;5135916;27;20413;-61
2023/07/04 12:15:29;;;;;;;4.17;3.73;;;26.40;1.00;;;;;;5116100;27;20420;-61
2023/07/04 12:17:58;;;;;;;5.23;4.00;;;26.10;1.00;;;;;;5113535;27;20698;-60
2023/07/04 12:20:27;;;;;;;4.53;4.10;;;25.80;1.00;;;;;;5097825;27;20437;-62
2023/07/04 12:22:57;;;;;;;5.13;4.20;;;25.90;1.00;;;;;;5134440;27;20429;-60
2023/07/04 12:25:28;;;;;;;4.93;4.33;;;25.90;1.00;;;;;;5133794;27;20476;-59
2023/07/04 12:27:56;;;;;;;4.60;4.07;;;25.80;1.00;;;;;;5116791;27;20460;-60
2023/07/04 12:30:22;;;;;;;6.00;4.23;;;26.20;1.00;;;;;;5133486;27;20546;-61
2023/07/04 12:32:52;;;;;;;4.63;3.77;;;26.70;1.00;;;;;;5133742;27;20537;-61
2023/07/04 12:35:19;;;;;;;4.07;3.67;;;26.90;1.00;;;;;;5133678;27;20416;-61
2023/07/04 12:37:48;;;;;;;4.53;3.90;;;27.20;1.00;;;;;;5132412;27;20417;-62
2023/07/04 12:40:16;;;;;;;4.23;3.83;;;27.20;1.00;;;;;;5116610;27;20429;-61
2023/07/04 12:42:43;;;;;;;3.77;3.20;;;27.30;1.00;;;;;;5133615;27;20440;-61
2023/07/04 12:45:10;;;;;;;4.50;4.10;;;27.20;1.00;;;;;;5135549;27;20454;-61
2023/07/04 12:47:36;;;;;;;5.00;3.70;;;27.10;1.00;;;;;;5115986;27;20547;-61
2023/07/04 12:50:02;;;;;;;3.77;3.20;;;26.50;1.00;;;;;;5113249;27;20695;-61
2023/07/04 12:52:33;;;;;;;5.07;3.70;;;26.30;1.00;;;;;;5113524;27;20421;-61
2023/07/04 12:55:01;;;;;;;6.53;4.10;;;26.40;1.00;;;;;;5133085;27;20432;-61
2023/07/04 12:57:28;;;;;;;5.27;3.93;;;26.80;1.00;;;;;;5133308;27;20447;-60
2023/07/04 13:00:09;;;;;;;5.00;3.73;;;27.40;1.00;;;;;;5133859;27;20649;-61
2023/07/04 13:02:35;;;;;;;3.80;3.40;;;27.50;1.00;;;;;;5135273;27;20408;-61